Time;durP1;ratioP1;P1;durP2;ratioP2;P2;SDS_P1;SDS_P2;PMS_P1;PMS_P2;Temp;Humidity;BMP_temperature;BMP_pressure;BME280_temperature;BME280_humidity;BME280_pressure;Samples;Min_cycle;Max_cycle;Signal;HPM_P1;HPM_P2
2021/04/19 00:00:09;;;;;;;37.80;17.23;;;;;;;;;;5049814;28;20421;-78
2021/04/19 00:02:34;;;;;;;43.33;18.23;;;;;;;;;;5050976;28;20124;-78
2021/04/19 00:04:59;;;;;;;37.53;18.30;;;;;;;;;;5052573;28;20123;-79
2021/04/19 00:07:24;;;;;;;46.20;19.17;;;;;;;;;;5051618;28;20017;-79
2021/04/19 00:09:49;;;;;;;37.80;17.90;;;;;;;;;;5051863;28;20033;-78
2021/04/19 00:12:14;;;;;;;38.50;17.77;;;;;;;;;;5047083;28;20472;-78
2021/04/19 00:14:40;;;;;;;45.60;18.67;;;;;;;;;;5053144;28;20028;-78
2021/04/19 00:17:05;;;;;;;45.17;18.07;;;;;;;;;;5051281;28;20059;-79
2021/04/19 00:19:30;;;;;;;46.03;18.03;;;;;;;;;;5041887;28;20047;-79
2021/04/19 00:21:55;;;;;;;41.23;17.27;;;;;;;;;;5052580;28;20024;-79
2021/04/19 00:24:20;;;;;;;41.47;18.70;;;;;;;;;;5047737;28;20032;-79
2021/04/19 00:26:46;;;;;;;46.53;19.17;;;;;;;;;;5049273;28;20508;-79
2021/04/19 00:29:11;;;;;;;38.90;19.40;;;;;;;;;;5052180;28;20054;-79
2021/04/19 00:31:36;;;;;;;47.57;19.20;;;;;;;;;;5052499;28;20017;-78
2021/04/19 00:34:02;;;;;;;43.20;18.57;;;;;;;;;;5043041;28;20487;-79
2021/04/19 00:36:28;;;;;;;48.33;19.47;;;;;;;;;;5041550;28;20469;-79
2021/04/19 00:38:53;;;;;;;46.17;18.87;;;;;;;;;;5046816;28;20025;-78
2021/04/19 00:41:18;;;;;;;35.43;19.20;;;;;;;;;;5048507;28;20013;-79
2021/04/19 00:43:44;;;;;;;42.40;18.30;;;;;;;;;;5052150;28;20021;-78
2021/04/19 00:46:09;;;;;;;47.90;19.67;;;;;;;;;;5042839;28;20074;-78
2021/04/19 00:48:35;;;;;;;52.80;20.67;;;;;;;;;;5048863;28;20024;-78
2021/04/19 00:51:01;;;;;;;49.93;19.70;;;;;;;;;;5079345;28;20044;-78
2021/04/19 00:53:27;;;;;;;41.70;18.57;;;;;;;;;;5050307;28;20021;-79
2021/04/19 00:55:53;;;;;;;38.73;19.33;;;;;;;;;;5042758;28;20111;-79
2021/04/19 00:58:19;;;;;;;43.50;19.77;;;;;;;;;;5043959;28;20380;-79
2021/04/19 01:00:44;;;;;;;40.90;19.17;;;;;;;;;;5051813;28;20023;-79
2021/04/19 01:03:10;;;;;;;42.40;19.77;;;;;;;;;;5050203;28;20086;-78
2021/04/19 01:05:36;;;;;;;43.13;19.30;;;;;;;;;;5050577;28;20060;-79
2021/04/19 01:08:01;;;;;;;50.03;20.13;;;;;;;;;;5049312;28;20044;-79
2021/04/19 01:10:27;;;;;;;49.30;20.30;;;;;;;;;;5051169;28;20837;-79
2021/04/19 01:12:52;;;;;;;43.50;19.23;;;;;;;;;;5051688;28;20024;-78
2021/04/19 01:15:18;;;;;;;40.83;19.40;;;;;;;;;;5050816;28;20098;-79
2021/04/19 01:17:43;;;;;;;46.23;19.97;;;;;;;;;;5050507;28;20060;-79
2021/04/19 01:20:10;;;;;;;49.93;21.10;;;;;;;;;;5051766;28;20012;-78
2021/04/19 01:22:36;;;;;;;43.90;19.80;;;;;;;;;;5051381;28;20056;-79
2021/04/19 01:25:01;;;;;;;43.53;19.10;;;;;;;;;;5050387;28;20112;-78
2021/04/19 01:27:26;;;;;;;39.53;18.57;;;;;;;;;;5051273;28;20418;-79
2021/04/19 01:29:51;;;;;;;50.07;21.40;;;;;;;;;;5046369;28;20013;-79
2021/04/19 01:32:16;;;;;;;44.37;19.63;;;;;;;;;;5050508;28;20031;-79
2021/04/19 01:34:42;;;;;;;49.43;20.27;;;;;;;;;;5050355;28;20166;-78
2021/04/19 01:37:07;;;;;;;51.83;20.60;;;;;;;;;;5050196;28;20143;-78
2021/04/19 01:39:32;;;;;;;48.97;21.07;;;;;;;;;;5049004;28;20406;-78
2021/04/19 01:41:57;;;;;;;49.33;21.27;;;;;;;;;;5041724;28;20024;-79
2021/04/19 01:44:22;;;;;;;43.93;20.40;;;;;;;;;;5047138;28;20056;-79
2021/04/19 01:46:48;;;;;;;51.63;20.73;;;;;;;;;;5049850;28;20059;-79
2021/04/19 01:49:13;;;;;;;49.13;21.27;;;;;;;;;;5051591;28;20373;-79
2021/04/19 01:51:38;;;;;;;47.60;21.17;;;;;;;;;;5053825;28;20021;-79
2021/04/19 01:54:04;;;;;;;53.13;22.27;;;;;;;;;;5047804;28;20028;-79
2021/04/19 01:56:29;;;;;;;44.50;20.70;;;;;;;;;;5047538;28;20388;-79
2021/04/19 01:58:54;;;;;;;49.30;21.33;;;;;;;;;;5053780;28;20079;-79
2021/04/19 02:01:19;;;;;;;49.33;21.60;;;;;;;;;;5051576;28;20037;-78
2021/04/19 02:04:03;;;;;;;48.97;20.63;;;;;;;;;;5054937;28;20036;-79
2021/04/19 02:06:29;;;;;;;51.50;21.33;;;;;;;;;;5055005;28;20017;-79
2021/04/19 02:09:04;;;;;;;47.00;20.90;;;;;;;;;;5054806;28;20040;-79
2021/04/19 02:11:48;;;;;;;46.30;21.13;;;;;;;;;;5052169;28;20090;-79
2021/04/19 02:14:19;;;;;;;59.97;23.00;;;;;;;;;;5048726;28;20207;-78
2021/04/19 02:16:49;;;;;;;48.00;21.60;;;;;;;;;;5050341;28;20017;-79
2021/04/19 02:19:18;;;;;;;42.70;20.50;;;;;;;;;;5042600;28;20021;-79
2021/04/19 02:21:45;;;;;;;53.23;21.63;;;;;;;;;;5044110;28;20469;-79
2021/04/19 02:24:12;;;;;;;48.77;21.67;;;;;;;;;;5047223;28;20059;-79
2021/04/19 02:26:41;;;;;;;49.87;22.20;;;;;;;;;;5055177;28;20457;-78
2021/04/19 02:29:12;;;;;;;41.80;20.00;;;;;;;;;;5080793;28;20025;-78
2021/04/19 02:31:40;;;;;;;53.73;22.20;;;;;;;;;;5043552;28;20147;-79
2021/04/19 02:34:08;;;;;;;44.13;20.67;;;;;;;;;;5046507;28;20044;-78
2021/04/19 02:36:34;;;;;;;42.30;19.60;;;;;;;;;;5049820;28;20021;-79
2021/04/19 02:38:59;;;;;;;44.93;20.43;;;;;;;;;;5045344;28;20027;-78
2021/04/19 02:41:26;;;;;;;47.47;20.17;;;;;;;;;;5052440;28;20021;-79
2021/04/19 02:43:52;;;;;;;39.83;20.87;;;;;;;;;;5086005;28;20025;-79
2021/04/19 02:46:17;;;;;;;43.33;20.30;;;;;;;;;;5054547;28;20377;-79
2021/04/19 02:48:43;;;;;;;49.80;22.23;;;;;;;;;;5054457;28;20047;-79
2021/04/19 02:51:09;;;;;;;50.30;21.47;;;;;;;;;;5047200;28;20020;-79
2021/04/19 02:53:34;;;;;;;46.90;21.70;;;;;;;;;;5050488;28;20078;-78
2021/04/19 02:56:01;;;;;;;56.43;24.47;;;;;;;;;;5050848;28;20523;-79
2021/04/19 02:58:38;;;;;;;47.80;20.70;;;;;;;;;;5054428;28;20043;-79
2021/04/19 03:01:04;;;;;;;49.13;21.43;;;;;;;;;;5053098;28;20021;-79
2021/04/19 03:03:31;;;;;;;50.03;22.30;;;;;;;;;;5054163;28;20024;-79
2021/04/19 03:05:57;;;;;;;57.67;21.43;;;;;;;;;;5045099;28;20645;-78
2021/04/19 03:08:23;;;;;;;48.03;20.47;;;;;;;;;;5043203;28;20024;-79
2021/04/19 03:10:52;;;;;;;39.13;19.93;;;;;;;;;;5046168;28;20026;-79
2021/04/19 03:13:18;;;;;;;50.13;21.20;;;;;;;;;;5053549;28;20032;-78
2021/04/19 03:15:45;;;;;;;48.90;21.80;;;;;;;;;;5054006;28;20082;-78
2021/04/19 03:18:16;;;;;;;43.43;21.13;;;;;;;;;;5051334;28;20082;-79
2021/04/19 03:20:44;;;;;;;50.27;22.20;;;;;;;;;;5042789;28;20033;-78
2021/04/19 03:23:10;;;;;;;47.70;21.30;;;;;;;;;;5052336;28;20061;-79
2021/04/19 03:25:37;;;;;;;46.03;20.57;;;;;;;;;;5053756;28;20025;-79
2021/04/19 03:28:02;;;;;;;44.50;20.80;;;;;;;;;;5053118;28;20021;-79
2021/04/19 03:30:27;;;;;;;46.83;20.47;;;;;;;;;;5047720;28;20024;-79
2021/04/19 03:32:54;;;;;;;49.60;21.03;;;;;;;;;;5049949;28;20017;-78
2021/04/19 03:35:22;;;;;;;45.20;21.73;;;;;;;;;;5053271;28;20660;-79
2021/04/19 03:37:49;;;;;;;58.07;21.57;;;;;;;;;;5047364;28;20101;-78
2021/04/19 03:40:21;;;;;;;43.43;20.07;;;;;;;;;;5053243;28;20033;-79
2021/04/19 03:42:49;;;;;;;54.65;21.25;;;;;;;;;;5047723;28;20029;-78
2021/04/19 03:45:14;;;;;;;46.23;21.30;;;;;;;;;;5051749;28;20028;-79
2021/04/19 03:47:40;;;;;;;54.40;20.17;;;;;;;;;;5042070;28;20448;-79
2021/04/19 03:50:07;;;;;;;46.03;20.77;;;;;;;;;;5050250;28;20021;-79
2021/04/19 03:52:37;;;;;;;50.07;21.47;;;;;;;;;;5045146;28;20033;-78
2021/04/19 03:55:04;;;;;;;45.03;20.43;;;;;;;;;;5047824;28;20086;-79
2021/04/19 03:57:30;;;;;;;52.27;20.37;;;;;;;;;;5049765;28;20020;-79
2021/04/19 03:59:57;;;;;;;44.23;19.77;;;;;;;;;;5046235;28;20422;-78
2021/04/19 04:02:24;;;;;;;49.63;20.87;;;;;;;;;;5051585;28;20419;-78
2021/04/19 04:04:50;;;;;;;48.27;21.27;;;;;;;;;;5046313;28;20087;-79
2021/04/19 04:07:16;;;;;;;46.37;20.17;;;;;;;;;;5047408;28;20053;-78
2021/04/19 04:09:41;;;;;;;52.83;22.10;;;;;;;;;;5052248;28;20021;-79
2021/04/19 04:12:07;;;;;;;48.77;21.57;;;;;;;;;;5051435;28;20032;-78
2021/04/19 04:14:34;;;;;;;50.40;21.57;;;;;;;;;;5052377;28;20353;-79
2021/04/19 04:16:59;;;;;;;43.43;18.93;;;;;;;;;;5051631;28;20048;-79
2021/04/19 04:19:25;;;;;;;49.80;22.80;;;;;;;;;;5045266;28;20520;-79
2021/04/19 04:21:50;;;;;;;51.00;20.97;;;;;;;;;;5047947;28;20083;-79
2021/04/19 04:24:15;;;;;;;46.73;20.30;;;;;;;;;;5045968;28;20472;-78
2021/04/19 04:26:41;;;;;;;52.40;21.33;;;;;;;;;;5048120;28;20032;-78
2021/04/19 04:29:06;;;;;;;48.13;20.53;;;;;;;;;;5048361;28;20483;-78
2021/04/19 04:31:31;;;;;;;49.83;20.67;;;;;;;;;;5052057;28;20021;-78
2021/04/19 04:33:56;;;;;;;45.67;19.67;;;;;;;;;;5051269;28;20090;-79
2021/04/19 04:36:21;;;;;;;49.60;20.60;;;;;;;;;;5052083;28;20445;-78
2021/04/19 04:38:47;;;;;;;46.93;21.80;;;;;;;;;;5050867;28;20033;-79
2021/04/19 04:41:12;;;;;;;57.10;23.53;;;;;;;;;;5049505;28;20444;-78
2021/04/19 04:43:38;;;;;;;55.07;21.50;;;;;;;;;;5051796;28;20035;-78
2021/04/19 04:46:19;;;;;;;55.83;20.77;;;;;;;;;;5052074;28;20083;-79
2021/04/19 04:48:50;;;;;;;46.90;22.40;;;;;;;;;;5042808;28;20095;-79
2021/04/19 04:51:20;;;;;;;59.60;21.60;;;;;;;;;;5052249;28;20025;-79
2021/04/19 04:53:53;;;;;;;52.67;21.53;;;;;;;;;;5046258;28;20353;-78
2021/04/19 04:56:24;;;;;;;52.07;23.40;;;;;;;;;;5083031;28;20024;-79
2021/04/19 04:58:52;;;;;;;48.70;20.57;;;;;;;;;;5070142;28;20017;-78
2021/04/19 05:01:17;;;;;;;49.57;22.40;;;;;;;;;;5051903;28;20446;-79
2021/04/19 05:03:43;;;;;;;53.30;22.07;;;;;;;;;;5051822;28;20025;-78
2021/04/19 05:06:08;;;;;;;48.80;21.37;;;;;;;;;;5050648;28;20310;-78
2021/04/19 05:08:40;;;;;;;44.13;19.47;;;;;;;;;;5043617;28;20418;-78
2021/04/19 05:11:06;;;;;;;57.27;23.20;;;;;;;;;;5043943;28;20086;-78
2021/04/19 05:13:31;;;;;;;46.87;21.37;;;;;;;;;;5075228;28;20266;-79
2021/04/19 05:15:56;;;;;;;53.43;22.50;;;;;;;;;;5048443;28;20485;-78
2021/04/19 05:18:21;;;;;;;47.40;21.40;;;;;;;;;;5051274;28;20738;-79
2021/04/19 05:20:47;;;;;;;56.50;22.53;;;;;;;;;;5069047;28;20025;-79
2021/04/19 05:23:13;;;;;;;51.57;23.07;;;;;;;;;;5049787;28;20013;-79
2021/04/19 05:25:38;;;;;;;51.80;22.33;;;;;;;;;;5043300;28;20025;-78
2021/04/19 05:28:04;;;;;;;56.40;22.93;;;;;;;;;;5043975;28;20372;-78
2021/04/19 05:30:30;;;;;;;50.80;23.70;;;;;;;;;;5083216;28;20538;-79
2021/04/19 05:32:55;;;;;;;53.00;23.27;;;;;;;;;;5047300;28;20536;-78
2021/04/19 05:35:21;;;;;;;54.70;23.67;;;;;;;;;;5076560;28;20469;-79
2021/04/19 05:37:48;;;;;;;53.03;23.63;;;;;;;;;;5048760;28;20057;-78
2021/04/19 05:40:13;;;;;;;56.17;24.83;;;;;;;;;;5058211;28;20031;-79
2021/04/19 05:42:39;;;;;;;58.73;25.03;;;;;;;;;;5044407;28;20104;-78
2021/04/19 05:45:06;;;;;;;62.50;25.90;;;;;;;;;;5078367;28;20031;-78
2021/04/19 05:47:32;;;;;;;54.63;25.47;;;;;;;;;;5066404;28;20017;-79
2021/04/19 05:49:57;;;;;;;63.60;26.53;;;;;;;;;;5046145;28;20120;-79
2021/04/19 05:52:24;;;;;;;59.23;27.23;;;;;;;;;;5049554;28;20024;-78
2021/04/19 05:54:49;;;;;;;64.80;28.67;;;;;;;;;;5049760;28;20476;-79
2021/04/19 05:57:22;;;;;;;53.70;26.63;;;;;;;;;;5041032;28;20032;-78
2021/04/19 05:59:59;;;;;;;54.00;26.10;;;;;;;;;;5049813;28;20067;-79
2021/04/19 06:02:29;;;;;;;63.27;28.77;;;;;;;;;;5044000;28;20484;-79
2021/04/19 06:04:56;;;;;;;56.53;27.77;;;;;;;;;;5080839;28;20036;-78
2021/04/19 06:07:31;;;;;;;52.70;26.13;;;;;;;;;;5043294;28;20021;-78
2021/04/19 06:09:56;;;;;;;62.20;26.37;;;;;;;;;;5049300;28;20028;-78
2021/04/19 06:12:24;;;;;;;61.42;27.75;;;;;;;;;;5042378;28;20013;-79
2021/04/19 06:14:50;;;;;;;71.33;28.77;;;;;;;;;;5049539;28;20032;-79
2021/04/19 06:17:16;;;;;;;66.93;28.67;;;;;;;;;;5047690;28;20025;-78
2021/04/19 06:19:46;;;;;;;72.23;30.60;;;;;;;;;;5049332;28;20021;-78
2021/04/19 06:22:18;;;;;;;72.27;30.20;;;;;;;;;;5050316;28;20591;-79
2021/04/19 06:24:47;;;;;;;73.80;29.00;;;;;;;;;;5045704;28;20028;-79
2021/04/19 06:27:30;;;;;;;74.20;30.57;;;;;;;;;;5050598;28;20758;-78
2021/04/19 06:29:55;;;;;;;69.17;30.43;;;;;;;;;;5047312;28;20020;-79
2021/04/19 06:32:24;;;;;;;79.07;33.33;;;;;;;;;;5044073;28;20093;-79
2021/04/19 06:34:50;;;;;;;90.37;34.43;;;;;;;;;;5046620;28;20029;-78
2021/04/19 06:37:17;;;;;;;80.93;33.73;;;;;;;;;;5048682;28;20029;-78
2021/04/19 06:39:43;;;;;;;86.30;32.30;;;;;;;;;;5045035;28;20439;-78
2021/04/19 06:42:08;;;;;;;75.90;32.43;;;;;;;;;;5050377;28;20078;-79
2021/04/19 06:44:34;;;;;;;79.50;32.63;;;;;;;;;;5051664;28;20021;-79
2021/04/19 06:46:59;;;;;;;82.50;35.03;;;;;;;;;;5053372;28;20043;-79
2021/04/19 06:49:25;;;;;;;81.70;33.17;;;;;;;;;;5053252;28;20017;-78
2021/04/19 06:51:52;;;;;;;80.07;34.03;;;;;;;;;;5050830;28;20104;-78
2021/04/19 06:54:17;;;;;;;84.17;35.43;;;;;;;;;;5052044;28;20521;-79
2021/04/19 06:56:43;;;;;;;76.03;35.53;;;;;;;;;;5048452;28;20025;-78
2021/04/19 06:59:13;;;;;;;82.20;35.70;;;;;;;;;;5044760;28;20234;-79
2021/04/19 07:01:39;;;;;;;87.90;37.83;;;;;;;;;;5044054;28;20020;-78
2021/04/19 07:04:05;;;;;;;75.60;36.00;;;;;;;;;;5052234;28;20033;-79
2021/04/19 07:06:35;;;;;;;78.93;34.33;;;;;;;;;;5044627;28;20020;-79
2021/04/19 07:09:23;;;;;;;69.17;33.20;;;;;;;;;;5051812;28;20025;-79
2021/04/19 07:11:51;;;;;;;75.57;36.57;;;;;;;;;;5048191;28;20485;-79
2021/04/19 07:14:17;;;;;;;70.50;34.93;;;;;;;;;;5051883;28;20024;-79
2021/04/19 07:16:42;;;;;;;78.70;34.67;;;;;;;;;;5048006;28;20024;-79
2021/04/19 07:19:08;;;;;;;77.53;36.93;;;;;;;;;;5048631;28;20381;-79
2021/04/19 07:21:33;;;;;;;85.13;36.47;;;;;;;;;;5046940;28;20096;-79
2021/04/19 07:24:00;;;;;;;74.77;35.50;;;;;;;;;;5052814;28;20029;-79
2021/04/19 07:26:26;;;;;;;73.17;34.70;;;;;;;;;;5050139;28;20025;-79
2021/04/19 07:28:51;;;;;;;72.63;34.17;;;;;;;;;;5042255;28;20678;-79
2021/04/19 07:31:17;;;;;;;80.03;38.43;;;;;;;;;;5043167;28;20027;-79
2021/04/19 07:33:42;;;;;;;80.87;36.73;;;;;;;;;;5050687;28;20025;-79
2021/04/19 07:36:21;;;;;;;82.90;39.47;;;;;;;;;;5050148;28;20364;-79
2021/04/19 07:38:46;;;;;;;84.13;37.70;;;;;;;;;;5043983;28;20472;-79
2021/04/19 07:41:12;;;;;;;80.20;35.87;;;;;;;;;;5050130;28;20079;-78
2021/04/19 07:43:38;;;;;;;76.30;34.17;;;;;;;;;;5050718;28;20021;-79
2021/04/19 07:46:08;;;;;;;79.60;37.10;;;;;;;;;;5044342;28;20048;-79
2021/04/19 07:48:38;;;;;;;73.87;35.47;;;;;;;;;;5051506;28;20058;-79
2021/04/19 07:51:22;;;;;;;85.73;37.73;;;;;;;;;;5043124;28;20044;-79
2021/04/19 07:53:47;;;;;;;79.77;34.87;;;;;;;;;;5047335;28;20040;-79
2021/04/19 07:56:16;;;;;;;84.73;36.03;;;;;;;;;;5045438;28;20512;-79
2021/04/19 07:58:41;;;;;;;71.53;35.33;;;;;;;;;;5051935;28;20021;-79
2021/04/19 08:01:06;;;;;;;85.07;37.83;;;;;;;;;;5052738;28;20110;-79
2021/04/19 08:03:38;;;;;;;78.47;37.93;;;;;;;;;;5044275;28;20096;-79
2021/04/19 08:06:04;;;;;;;;;;;;;;;;;;5050797;28;20020;-79
2021/04/19 08:08:30;;;;;;;77.53;34.73;;;;;;;;;;5051571;28;19951;-79
2021/04/19 08:11:08;;;;;;;72.83;35.83;;;;;;;;;;5050184;28;20258;-79
2021/04/19 08:13:33;;;;;;;75.63;37.27;;;;;;;;;;5077308;28;20017;-78
2021/04/19 08:16:15;;;;;;;75.00;36.67;;;;;;;;;;5048912;28;20079;-79
2021/04/19 08:18:41;;;;;;;72.63;33.97;;;;;;;;;;5048718;28;20044;-79
2021/04/19 08:21:06;;;;;;;84.73;38.67;;;;;;;;;;5051616;28;20022;-79
2021/04/19 08:23:41;;;;;;;81.80;39.83;;;;;;;;;;5051840;28;20067;-79
2021/04/19 08:26:07;;;;;;;66.38;33.28;;;;;;;;;;5042975;28;20021;-78
2021/04/19 08:28:41;;;;;;;67.35;36.53;;;;;;;;;;5078185;28;20024;-79
2021/04/19 08:31:06;;;;;;;69.97;34.90;;;;;;;;;;5051878;28;20059;-79
2021/04/19 08:33:33;;;;;;;60.40;33.35;;;;;;;;;;5083893;28;20020;-79
2021/04/19 08:35:58;;;;;;;61.65;33.17;;;;;;;;;;5052272;28;20041;-78
2021/04/19 08:38:24;;;;;;;63.30;30.75;;;;;;;;;;5051508;28;20052;-78
2021/04/19 08:40:50;;;;;;;67.22;29.50;;;;;;;;;;5050271;28;20360;-79
2021/04/19 08:43:18;;;;;;;60.65;32.15;;;;;;;;;;5051032;28;20036;-79
2021/04/19 08:45:43;;;;;;;66.88;29.50;;;;;;;;;;5050863;28;20025;-79
2021/04/19 08:48:09;;;;;;;49.05;26.92;;;;;;;;;;5052100;28;20028;-79
2021/04/19 08:50:35;;;;;;;56.03;28.35;;;;;;;;;;5050675;28;20475;-79
2021/04/19 08:53:00;;;;;;;59.17;28.55;;;;;;;;;;5042475;28;20021;-79
2021/04/19 08:55:25;;;;;;;64.43;32.70;;;;;;;;;;5051406;28;20025;-79
2021/04/19 08:57:51;;;;;;;58.20;30.23;;;;;;;;;;5050365;28;20072;-79
2021/04/19 09:00:18;;;;;;;57.67;29.53;;;;;;;;;;5051177;28;20017;-79
2021/04/19 09:02:44;;;;;;;62.63;32.17;;;;;;;;;;5051510;28;20390;-78
2021/04/19 09:05:09;;;;;;;63.40;34.77;;;;;;;;;;5051307;28;20127;-78
2021/04/19 09:07:35;;;;;;;57.83;30.60;;;;;;;;;;5051720;28;20104;-78
2021/04/19 09:10:01;;;;;;;62.13;31.77;;;;;;;;;;5043348;28;20380;-78
2021/04/19 09:12:27;;;;;;;61.77;29.53;;;;;;;;;;5043963;28;20021;-79
2021/04/19 09:15:11;;;;;;;55.83;30.20;;;;;;;;;;5048473;28;20033;-79
2021/04/19 09:17:39;;;;;;;58.20;27.92;;;;;;;;;;5075746;28;20052;-79
2021/04/19 09:20:07;;;;;;;56.72;28.83;;;;;;;;;;5047149;28;20057;-79
2021/04/19 09:22:33;;;;;;;59.80;28.73;;;;;;;;;;5050007;28;20384;-78
2021/04/19 09:25:05;;;;;;;54.67;26.33;;;;;;;;;;5049464;28;20017;-79
2021/04/19 09:27:31;;;;;;;;;;;;;;;;;;5050213;28;20044;-79
2021/04/19 09:29:56;;;;;;;57.97;24.77;;;;;;;;;;5046368;28;19909;-79
2021/04/19 09:32:23;;;;;;;48.92;25.38;;;;;;;;;;5049372;28;20316;-79
2021/04/19 09:34:58;;;;;;;54.13;25.73;;;;;;;;;;5041349;28;20036;-79
2021/04/19 09:37:43;;;;;;;47.13;25.00;;;;;;;;;;5039794;28;20032;-79
2021/04/19 09:40:15;;;;;;;48.88;24.80;;;;;;;;;;5050749;28;20440;-79
2021/04/19 09:43:03;;;;;;;50.85;26.02;;;;;;;;;;5045963;28;20115;-79
2021/04/19 09:45:46;;;;;;;51.28;25.33;;;;;;;;;;5044884;28;20025;-79
2021/04/19 09:48:35;;;;;;;46.15;25.50;;;;;;;;;;5046156;28;20027;-79
2021/04/19 09:51:12;;;;;;;44.05;21.30;;;;;;;;;;5049936;28;20028;-79
2021/04/19 09:53:38;;;;;;;38.35;18.60;;;;;;;;;;5050858;28;20020;-79
2021/04/19 09:56:03;;;;;;;41.97;20.70;;;;;;;;;;5043266;28;20059;-79
2021/04/19 09:58:29;;;;;;;39.97;19.23;;;;;;;;;;5050411;28;20105;-79
2021/04/19 10:00:57;;;;;;;38.47;21.35;;;;;;;;;;5049650;28;20013;-79
2021/04/19 10:03:23;;;;;;;38.92;20.90;;;;;;;;;;5048537;28;20018;-79
2021/04/19 10:05:49;;;;;;;44.30;21.80;;;;;;;;;;5050381;28;20021;-79
2021/04/19 10:08:15;;;;;;;48.45;21.80;;;;;;;;;;5051244;28;20079;-79
2021/04/19 10:10:41;;;;;;;36.60;19.30;;;;;;;;;;5051526;28;20021;-79
2021/04/19 10:13:06;;;;;;;34.10;17.13;;;;;;;;;;5053085;28;20021;-79
2021/04/19 10:15:31;;;;;;;41.92;21.58;;;;;;;;;;5054717;28;20541;-79
2021/04/19 10:17:59;;;;;;;42.22;23.23;;;;;;;;;;5048279;28;20016;-79
2021/04/19 10:20:26;;;;;;;43.05;22.25;;;;;;;;;;5043978;28;20108;-79
2021/04/19 10:23:07;;;;;;;41.35;22.15;;;;;;;;;;5051018;28;20037;-79
2021/04/19 10:25:33;;;;;;;34.30;18.90;;;;;;;;;;5053262;28;20021;-79
2021/04/19 10:27:58;;;;;;;35.38;17.80;;;;;;;;;;5045450;28;20017;-79
2021/04/19 10:30:23;;;;;;;53.28;27.85;;;;;;;;;;5054339;28;20051;-79
2021/04/19 10:32:49;;;;;;;50.35;27.70;;;;;;;;;;5052174;28;20041;-79
2021/04/19 10:35:33;;;;;;;49.97;22.88;;;;;;;;;;5051044;28;20151;-79
2021/04/19 10:37:59;;;;;;;46.03;24.35;;;;;;;;;;5053842;28;20061;-79
2021/04/19 10:40:25;;;;;;;41.35;20.00;;;;;;;;;;5052294;28;20495;-79
2021/04/19 10:42:50;;;;;;;37.28;20.75;;;;;;;;;;5054133;28;20411;-80
2021/04/19 10:45:16;;;;;;;39.88;20.60;;;;;;;;;;5050754;28;20017;-79
2021/04/19 10:47:41;;;;;;;44.05;20.73;;;;;;;;;;5052544;28;20099;-80
2021/04/19 10:50:07;;;;;;;39.50;21.02;;;;;;;;;;5051047;28;20029;-80
2021/04/19 10:52:32;;;;;;;38.40;17.48;;;;;;;;;;5050485;28;20028;-80
2021/04/19 10:55:03;;;;;;;42.42;18.92;;;;;;;;;;5048669;28;20024;-80
2021/04/19 10:57:28;;;;;;;37.40;20.58;;;;;;;;;;5050433;28;20033;-80
2021/04/19 10:59:54;;;;;;;35.22;19.88;;;;;;;;;;5052268;28;20032;-80
2021/04/19 11:02:23;;;;;;;30.40;17.73;;;;;;;;;;5051551;28;20507;-80
2021/04/19 11:04:48;;;;;;;33.50;18.30;;;;;;;;;;5086336;28;20421;-80
2021/04/19 11:07:23;;;;;;;32.45;17.73;;;;;;;;;;5054576;28;20029;-80
2021/04/19 11:10:07;;;;;;;38.90;20.98;;;;;;;;;;5052674;28;20045;-80
2021/04/19 11:12:32;;;;;;;40.47;22.65;;;;;;;;;;5053185;28;20017;-79
2021/04/19 11:15:06;;;;;;;50.80;22.30;;;;;;;;;;5054093;28;20044;-79
2021/04/19 11:17:31;;;;;;;42.47;22.35;;;;;;;;;;5051595;28;20039;-79
2021/04/19 11:19:56;;;;;;;38.25;19.70;;;;;;;;;;5051848;28;20024;-79
2021/04/19 11:22:27;;;;;;;42.03;21.88;;;;;;;;;;5051614;28;20035;-79
2021/04/19 11:24:52;;;;;;;38.80;20.83;;;;;;;;;;5054265;28;20449;-80
2021/04/19 11:27:21;;;;;;;41.30;21.88;;;;;;;;;;5054613;28;20103;-80
2021/04/19 11:29:47;;;;;;;42.72;21.63;;;;;;;;;;5053198;28;20041;-79
2021/04/19 11:32:29;;;;;;;46.58;23.10;;;;;;;;;;5053037;28;20032;-80
2021/04/19 11:34:54;;;;;;;49.60;22.75;;;;;;;;;;5053326;28;20017;-80
2021/04/19 11:37:33;;;;;;;38.17;21.95;;;;;;;;;;5053128;28;20104;-80
2021/04/19 11:39:58;;;;;;;51.70;24.40;;;;;;;;;;5052920;28;20017;-80
2021/04/19 11:42:28;;;;;;;48.47;24.77;;;;;;;;;;5053101;28;20015;-80
2021/04/19 11:44:53;;;;;;;52.53;24.13;;;;;;;;;;5052733;28;20032;-80
2021/04/19 11:47:19;;;;;;;51.70;23.77;;;;;;;;;;5052669;28;20013;-80
2021/04/19 11:49:44;;;;;;;36.30;19.58;;;;;;;;;;5052788;28;20020;-79
2021/04/19 11:52:10;;;;;;;50.28;23.45;;;;;;;;;;5052706;28;20070;-79
2021/04/19 11:54:36;;;;;;;44.40;22.88;;;;;;;;;;5052963;28;20024;-79
2021/04/19 11:57:01;;;;;;;51.50;25.95;;;;;;;;;;5052699;28;20033;-79
2021/04/19 11:59:26;;;;;;;35.75;19.05;;;;;;;;;;5053146;28;20028;-79
2021/04/19 12:01:51;;;;;;;39.60;19.10;;;;;;;;;;5052486;28;20104;-79
2021/04/19 12:04:16;;;;;;;46.22;22.52;;;;;;;;;;5053189;28;20379;-79
2021/04/19 12:06:41;;;;;;;38.95;19.27;;;;;;;;;;5052389;28;20552;-80
2021/04/19 12:09:07;;;;;;;53.47;22.92;;;;;;;;;;5084704;28;20032;-80
2021/04/19 12:11:32;;;;;;;44.08;23.90;;;;;;;;;;5052147;28;20024;-80
2021/04/19 12:14:01;;;;;;;40.88;23.83;;;;;;;;;;5050876;28;20033;-80
2021/04/19 12:16:27;;;;;;;47.10;22.17;;;;;;;;;;5052030;28;20009;-79
2021/04/19 12:18:52;;;;;;;46.58;24.17;;;;;;;;;;5052352;28;20511;-79
2021/04/19 12:21:17;;;;;;;56.25;24.05;;;;;;;;;;5052009;28;20438;-79
2021/04/19 12:23:42;;;;;;;41.75;23.17;;;;;;;;;;5052244;28;20411;-79
2021/04/19 12:26:08;;;;;;;44.67;23.27;;;;;;;;;;5052350;28;20031;-79
2021/04/19 12:28:33;;;;;;;43.47;21.73;;;;;;;;;;5051303;28;20017;-79
2021/04/19 12:31:00;;;;;;;41.33;23.02;;;;;;;;;;5051925;28;20071;-79
2021/04/19 12:33:26;;;;;;;44.25;23.92;;;;;;;;;;5049753;28;20075;-79
2021/04/19 12:35:51;;;;;;;44.65;23.73;;;;;;;;;;5052303;28;20453;-79
2021/04/19 12:38:16;;;;;;;49.55;24.20;;;;;;;;;;5083899;28;20399;-79
2021/04/19 12:40:42;;;;;;;46.58;22.65;;;;;;;;;;5084111;28;20063;-79
2021/04/19 12:43:07;;;;;;;42.28;20.98;;;;;;;;;;5083852;28;20213;-79
2021/04/19 12:45:33;;;;;;;44.90;23.13;;;;;;;;;;5051169;28;20012;-79
2021/04/19 12:48:01;;;;;;;42.50;23.98;;;;;;;;;;5051777;28;20020;-80
2021/04/19 12:50:27;;;;;;;46.78;24.38;;;;;;;;;;5050800;28;20467;-80
2021/04/19 12:52:52;;;;;;;43.30;24.05;;;;;;;;;;5051450;28;20500;-80
2021/04/19 12:55:18;;;;;;;42.17;21.75;;;;;;;;;;5051096;28;20017;-79
2021/04/19 12:57:43;;;;;;;29.48;18.02;;;;;;;;;;5051391;28;20021;-79
2021/04/19 13:00:08;;;;;;;41.88;20.75;;;;;;;;;;5049887;28;20021;-79
2021/04/19 13:02:33;;;;;;;44.90;22.98;;;;;;;;;;5050983;28;20171;-79
2021/04/19 13:04:59;;;;;;;33.85;21.10;;;;;;;;;;5051587;28;20102;-79
2021/04/19 13:07:24;;;;;;;37.17;21.52;;;;;;;;;;5050899;28;20020;-79
2021/04/19 13:09:49;;;;;;;38.05;22.80;;;;;;;;;;5037960;28;20023;-79
2021/04/19 13:12:14;;;;;;;34.67;18.75;;;;;;;;;;5083835;28;20013;-79
2021/04/19 13:14:41;;;;;;;31.40;19.02;;;;;;;;;;5051243;28;20025;-80
2021/04/19 13:17:06;;;;;;;41.67;20.55;;;;;;;;;;5051518;28;20031;-79
2021/04/19 13:19:32;;;;;;;31.75;19.48;;;;;;;;;;5051369;28;20021;-79
2021/04/19 13:21:57;;;;;;;43.10;25.45;;;;;;;;;;5083719;28;20068;-79
2021/04/19 13:24:22;;;;;;;42.90;25.63;;;;;;;;;;5050824;28;20051;-80
2021/04/19 13:26:47;;;;;;;47.65;25.08;;;;;;;;;;5051220;28;20388;-80
2021/04/19 13:29:13;;;;;;;44.83;24.15;;;;;;;;;;5076692;28;20021;-80
2021/04/19 13:31:38;;;;;;;33.33;20.42;;;;;;;;;;5050262;28;20048;-80
2021/04/19 13:34:03;;;;;;;31.95;18.30;;;;;;;;;;5051056;28;20376;-80
2021/04/19 13:36:28;;;;;;;35.33;16.98;;;;;;;;;;5050767;28;20376;-80
2021/04/19 13:38:54;;;;;;;36.22;21.38;;;;;;;;;;5049567;28;20024;-80
2021/04/19 13:41:19;;;;;;;31.63;16.60;;;;;;;;;;5050746;28;20024;-80
2021/04/19 13:43:44;;;;;;;43.17;21.17;;;;;;;;;;5050694;28;20039;-80
2021/04/19 13:46:09;;;;;;;38.55;18.92;;;;;;;;;;5054506;28;20040;-80
2021/04/19 13:48:35;;;;;;;44.33;22.63;;;;;;;;;;5054894;28;20441;-80
2021/04/19 13:51:00;;;;;;;39.28;19.85;;;;;;;;;;5054562;28;20491;-80
2021/04/19 13:53:25;;;;;;;31.52;18.33;;;;;;;;;;5087415;28;20515;-80
2021/04/19 13:55:50;;;;;;;36.90;18.95;;;;;;;;;;5086975;28;20017;-80
2021/04/19 13:58:16;;;;;;;42.90;20.83;;;;;;;;;;5055361;28;20100;-80
2021/04/19 14:00:41;;;;;;;44.67;21.88;;;;;;;;;;5054490;28;20103;-80
2021/04/19 14:03:06;;;;;;;45.95;25.52;;;;;;;;;;5055125;28;20111;-80
2021/04/19 14:05:31;;;;;;;37.55;20.92;;;;;;;;;;5054844;28;20043;-80
2021/04/19 14:07:57;;;;;;;39.03;20.90;;;;;;;;;;5054942;28;20120;-80
2021/04/19 14:10:22;;;;;;;42.20;18.38;;;;;;;;;;5054040;28;20016;-80
2021/04/19 14:12:49;;;;;;;38.78;21.17;;;;;;;;;;5054589;28;20025;-80
2021/04/19 14:15:15;;;;;;;37.85;19.27;;;;;;;;;;5054525;28;20346;-80
2021/04/19 14:17:41;;;;;;;39.58;23.75;;;;;;;;;;5054215;28;20024;-80